Time;durP1;ratioP1;P1;durP2;ratioP2;P2;SDS_P1;SDS_P2;PMS_P1;PMS_P2;Temp;Humidity;BMP_temperature;BMP_pressure;BME280_temperature;BME280_humidity;BME280_pressure;Samples;Min_cycle;Max_cycle;Signal;HPM_P1;HPM_P2
2022/10/22 00:02:04;;;;;;;18.30;15.77;;;14.00;1.00;;;;;;6384297;27;20400;-54
2022/10/22 00:05:08;;;;;;;17.03;15.07;;;13.90;1.00;;;;;;6381390;27;20607;-51
2022/10/22 00:08:11;;;;;;;15.67;14.07;;;13.90;1.00;;;;;;6374094;27;20228;-53
2022/10/22 00:11:15;;;;;;;16.20;14.70;;;13.90;1.00;;;;;;6386894;27;20230;-54
2022/10/22 00:14:19;;;;;;;13.60;12.30;;;13.90;1.00;;;;;;6388289;27;20234;-52
2022/10/22 00:17:22;;;;;;;13.27;12.07;;;14.00;1.00;;;;;;6387156;27;20222;-52
2022/10/22 00:20:25;;;;;;;12.77;11.67;;;14.00;1.00;;;;;;6384966;27;21284;-51
2022/10/22 00:23:28;;;;;;;12.53;11.53;;;14.00;1.00;;;;;;6389284;27;20239;-53
2022/10/22 00:26:31;;;;;;;17.07;15.50;;;14.00;1.00;;;;;;6391112;27;20230;-53
2022/10/22 00:29:35;;;;;;;16.03;14.43;;;14.00;1.00;;;;;;6382619;27;20235;-52
2022/10/22 00:32:38;;;;;;;13.07;11.97;;;14.00;1.00;;;;;;6382983;27;20230;-53
2022/10/22 00:35:43;;;;;;;12.23;11.23;;;14.00;1.00;;;;;;6365919;27;20896;-53
2022/10/22 00:38:46;;;;;;;11.53;10.53;;;14.00;1.00;;;;;;6382234;27;20231;-52
2022/10/22 00:41:50;;;;;;;11.83;10.87;;;14.00;1.00;;;;;;6392108;27;20241;-51
2022/10/22 00:45:16;;;;;;;11.30;10.47;;;14.00;1.00;;;;;;6391940;27;20947;-54
2022/10/22 00:48:22;;;;;;;12.80;11.70;;;14.00;1.00;;;;;;6365211;27;20237;-54
2022/10/22 00:51:28;;;;;;;13.40;12.30;;;14.00;1.00;;;;;;6366425;27;20317;-52
2022/10/22 00:54:31;;;;;;;12.47;11.53;;;13.90;1.00;;;;;;6365756;27;20262;-53
2022/10/22 00:57:35;;;;;;;12.17;11.07;;;13.90;1.00;;;;;;6378810;27;20231;-53
2022/10/22 01:00:40;;;;;;;13.60;12.40;;;13.90;1.00;;;;;;6392040;27;20242;-54
2022/10/22 01:03:43;;;;;;;13.97;12.67;;;13.90;1.00;;;;;;6384419;27;20443;-53
2022/10/22 01:06:46;;;;;;;16.53;14.93;;;13.90;1.00;;;;;;6390400;27;20230;-53
2022/10/22 01:09:57;;;;;;;19.03;17.23;;;13.90;1.00;;;;;;6391003;27;20234;-53
2022/10/22 01:13:12;;;;;;;19.27;17.37;;;13.80;1.00;;;;;;6366298;27;20235;-52
2022/10/22 01:16:21;;;;;;;18.53;16.63;;;13.90;1.00;;;;;;6364341;27;20235;-52
2022/10/22 01:19:50;;;;;;;18.83;16.40;;;13.90;1.00;;;;;;6367140;27;20243;-55
2022/10/22 01:23:02;;;;;;;19.03;17.00;;;13.90;1.00;;;;;;6374112;27;20715;-53
2022/10/22 01:26:13;;;;;;;21.53;17.27;;;13.90;1.00;;;;;;6373666;27;20246;-53
2022/10/22 01:29:19;;;;;;;18.67;16.70;;;13.90;1.00;;;;;;6385356;27;20227;-53
2022/10/22 01:32:25;;;;;;;16.50;14.70;;;13.90;1.00;;;;;;6389288;27;20235;-52
2022/10/22 01:35:31;;;;;;;18.77;16.73;;;13.90;1.00;;;;;;6365665;27;20242;-52
2022/10/22 01:38:36;;;;;;;17.10;15.40;;;13.90;1.00;;;;;;6381313;27;20711;-52
2022/10/22 01:41:41;;;;;;;17.70;15.80;;;13.90;1.00;;;;;;6386842;27;20234;-55
2022/10/22 01:44:47;;;;;;;15.87;14.37;;;13.90;1.00;;;;;;6389498;27;20416;-59
2022/10/22 01:48:00;;;;;;;16.40;14.87;;;13.90;1.00;;;;;;6388284;27;20235;-52
2022/10/22 01:51:24;;;;;;;17.13;15.27;;;13.80;1.00;;;;;;6387418;27;20715;-53
2022/10/22 01:54:37;;;;;;;15.60;14.27;;;13.80;1.00;;;;;;6363015;27;20628;-57
2022/10/22 01:57:49;;;;;;;13.47;12.27;;;13.80;1.00;;;;;;6377027;27;20223;-52
2022/10/22 02:01:00;;;;;;;12.60;11.50;;;13.80;1.00;;;;;;6377443;27;20231;-53
2022/10/22 02:04:11;;;;;;;11.73;10.83;;;13.80;1.00;;;;;;6373494;27;20731;-53
2022/10/22 02:07:17;;;;;;;16.43;14.83;;;13.80;1.00;;;;;;6381828;27;20223;-52
2022/10/22 02:10:21;;;;;;;15.97;14.40;;;13.80;1.00;;;;;;6388194;27;20238;-52
2022/10/22 02:13:28;;;;;;;19.47;17.10;;;13.80;1.00;;;;;;6387743;27;20231;-52
2022/10/22 02:16:35;;;;;;;16.87;15.10;;;13.80;1.00;;;;;;6387205;27;20250;-52
2022/10/22 02:19:42;;;;;;;17.07;15.37;;;13.80;1.00;;;;;;6388631;27;20480;-52
2022/10/22 02:22:46;;;;;;;17.70;15.90;;;13.70;1.00;;;;;;6376546;27;20235;-53
2022/10/22 02:25:55;;;;;;;16.03;14.43;;;13.80;1.00;;;;;;6388809;27;20303;-52
2022/10/22 02:29:03;;;;;;;18.87;16.97;;;13.70;1.00;;;;;;6387342;27;20231;-58
2022/10/22 02:32:11;;;;;;;19.47;16.57;;;13.70;1.00;;;;;;6388863;27;20245;-53
2022/10/22 02:35:18;;;;;;;16.80;14.93;;;13.70;1.00;;;;;;6387711;27;20245;-52
2022/10/22 02:38:22;;;;;;;17.53;15.77;;;13.70;1.00;;;;;;6383508;27;20238;-52
2022/10/22 02:41:25;;;;;;;15.23;13.70;;;13.70;1.00;;;;;;6388160;27;20242;-52
2022/10/22 02:44:28;;;;;;;17.70;15.90;;;13.60;1.00;;;;;;6388761;27;20241;-52
2022/10/22 02:47:32;;;;;;;18.43;15.50;;;13.60;1.00;;;;;;6362229;27;20235;-53
2022/10/22 02:50:35;;;;;;;17.27;15.40;;;13.60;1.00;;;;;;6385353;27;20234;-53
2022/10/22 02:53:38;;;;;;;18.53;15.93;;;13.60;1.00;;;;;;6379416;27;20253;-53
2022/10/22 02:56:41;;;;;;;21.97;17.17;;;13.60;1.00;;;;;;6380209;27;20239;-51
2022/10/22 02:59:43;;;;;;;19.93;17.90;;;13.60;1.00;;;;;;6378226;27;20237;-52
2022/10/22 03:02:48;;;;;;;22.57;17.90;;;13.60;1.00;;;;;;6386356;27;20238;-52
2022/10/22 03:05:51;;;;;;;18.57;16.67;;;13.50;1.00;;;;;;6384827;27;20388;-56
2022/10/22 03:08:54;;;;;;;15.63;14.17;;;13.60;1.00;;;;;;6385635;27;20235;-57
2022/10/22 03:11:57;;;;;;;15.37;13.87;;;13.50;1.00;;;;;;6374222;27;20236;-52
2022/10/22 03:15:00;;;;;;;11.30;10.40;;;13.50;1.00;;;;;;6360784;27;20241;-52
2022/10/22 03:18:04;;;;;;;12.00;11.10;;;13.50;1.00;;;;;;6359708;27;20298;-53
2022/10/22 03:21:13;;;;;;;11.80;10.90;;;13.50;1.00;;;;;;6365724;27;20222;-54
2022/10/22 03:24:21;;;;;;;11.87;10.87;;;13.50;1.00;;;;;;6389745;27;20235;-54
2022/10/22 03:27:24;;;;;;;11.47;10.57;;;13.50;1.00;;;;;;6388829;27;20265;-53
2022/10/22 03:30:27;;;;;;;17.50;14.43;;;13.50;1.00;;;;;;6385637;27;20237;-54
2022/10/22 03:33:31;;;;;;;16.10;14.43;;;13.50;1.00;;;;;;6371785;27;20238;-58
2022/10/22 03:36:34;;;;;;;17.60;14.27;;;13.50;1.00;;;;;;6386704;27;20243;-54
2022/10/22 03:39:38;;;;;;;14.77;13.37;;;13.50;1.00;;;;;;6386300;27;20636;-53
2022/10/22 03:42:42;;;;;;;13.00;12.00;;;13.50;1.00;;;;;;6381555;27;20239;-51
2022/10/22 03:45:45;;;;;;;12.03;11.03;;;13.50;1.00;;;;;;6379103;27;20250;-53
2022/10/22 03:48:49;;;;;;;13.10;12.00;;;13.50;1.00;;;;;;6380914;27;20239;-53
2022/10/22 03:51:52;;;;;;;16.70;14.30;;;13.50;1.00;;;;;;6372769;27;20397;-52
2022/10/22 03:54:55;;;;;;;17.90;15.93;;;13.50;1.00;;;;;;6385027;27;20238;-53
2022/10/22 03:57:58;;;;;;;16.23;14.53;;;13.50;1.00;;;;;;6385508;27;20711;-52
2022/10/22 04:01:05;;;;;;;17.40;15.50;;;13.50;1.00;;;;;;6380939;27;20405;-52
2022/10/22 04:04:09;;;;;;;15.30;13.90;;;13.50;1.00;;;;;;6385072;27;20747;-52
2022/10/22 04:07:12;;;;;;;14.80;13.33;;;13.50;1.00;;;;;;6376571;27;20218;-53
2022/10/22 04:10:15;;;;;;;15.73;13.67;;;13.50;1.00;;;;;;6385274;27;20427;-52
2022/10/22 04:13:18;;;;;;;16.23;14.60;;;13.50;1.00;;;;;;6385858;27;20234;-53
2022/10/22 04:16:22;;;;;;;13.10;11.80;;;13.50;1.00;;;;;;6372162;27;20238;-52
2022/10/22 04:19:31;;;;;;;14.10;12.13;;;13.50;1.00;;;;;;6384145;27;20238;-53
2022/10/22 04:22:35;;;;;;;17.50;15.83;;;13.50;1.00;;;;;;6385406;27;20499;-52
2022/10/22 04:25:38;;;;;;;17.10;15.40;;;13.50;1.00;;;;;;6377199;27;20586;-53
2022/10/22 04:28:41;;;;;;;16.50;14.83;;;13.50;1.00;;;;;;6385114;27;20271;-53
2022/10/22 04:31:44;;;;;;;19.17;16.43;;;13.40;1.00;;;;;;6384515;27;20238;-53
2022/10/22 04:34:48;;;;;;;18.60;16.57;;;13.40;1.00;;;;;;6381995;27;20230;-53
2022/10/22 04:37:51;;;;;;;15.27;13.80;;;13.40;1.00;;;;;;6384717;27;20399;-52
2022/10/22 04:40:54;;;;;;;14.10;12.83;;;13.40;1.00;;;;;;6377081;27;20235;-54
2022/10/22 04:43:58;;;;;;;12.37;11.33;;;13.40;1.00;;;;;;6385768;27;20242;-52
2022/10/22 04:47:00;;;;;;;14.57;13.13;;;13.40;1.00;;;;;;6383433;27;20234;-53
2022/10/22 04:50:06;;;;;;;12.17;11.07;;;13.40;1.00;;;;;;6380661;27;20246;-55
2022/10/22 04:53:09;;;;;;;17.00;15.10;;;13.40;1.00;;;;;;6382947;27;20623;-53
2022/10/22 04:56:15;;;;;;;15.00;13.60;;;13.40;1.00;;;;;;6385558;27;20227;-53
2022/10/22 04:59:17;;;;;;;14.30;13.00;;;13.40;1.00;;;;;;6382757;27;20222;-53
2022/10/22 05:02:20;;;;;;;13.77;12.47;;;13.30;1.00;;;;;;6389673;27;20235;-61
2022/10/22 05:05:24;;;;;;;11.97;10.87;;;13.30;1.00;;;;;;6389942;27;20237;-54
2022/10/22 05:08:27;;;;;;;12.07;11.07;;;13.30;1.00;;;;;;6387097;27;20726;-53
2022/10/22 05:11:35;;;;;;;12.20;11.27;;;13.30;1.00;;;;;;6389702;27;20241;-53
2022/10/22 05:14:38;;;;;;;12.93;11.63;;;13.30;1.00;;;;;;6390580;27;20355;-54
2022/10/22 05:17:46;;;;;;;11.90;10.90;;;13.30;1.00;;;;;;6387374;27;20276;-53
2022/10/22 05:20:50;;;;;;;12.30;11.20;;;13.30;1.00;;;;;;6383507;27;20707;-53
2022/10/22 05:23:54;;;;;;;15.30;13.80;;;13.30;1.00;;;;;;6386532;27;20231;-53
2022/10/22 05:26:58;;;;;;;13.00;11.87;;;13.20;1.00;;;;;;6385651;27;20231;-52
2022/10/22 05:30:01;;;;;;;16.87;15.00;;;13.20;1.00;;;;;;6389484;27;20620;-52
2022/10/22 05:33:05;;;;;;;14.07;12.87;;;13.20;1.00;;;;;;6389135;27;20740;-53
2022/10/22 05:36:12;;;;;;;12.83;11.53;;;13.20;1.00;;;;;;6386845;27;20230;-53
2022/10/22 05:39:15;;;;;;;11.30;10.33;;;13.20;1.00;;;;;;6387700;27;20241;-53
2022/10/22 05:42:18;;;;;;;11.43;10.43;;;13.20;1.00;;;;;;6382475;27;20226;-53
2022/10/22 05:45:21;;;;;;;13.63;12.33;;;13.10;1.00;;;;;;6388489;27;20229;-52
2022/10/22 05:48:23;;;;;;;13.70;12.37;;;13.10;1.00;;;;;;6387590;27;21361;-51
2022/10/22 05:51:29;;;;;;;15.13;13.47;;;13.10;1.00;;;;;;6384288;27;20613;-52
2022/10/22 05:54:32;;;;;;;14.10;12.80;;;13.10;1.00;;;;;;6386595;27;20237;-53
2022/10/22 05:57:35;;;;;;;17.97;15.60;;;13.10;1.00;;;;;;6388328;27;20235;-52
2022/10/22 06:00:38;;;;;;;15.33;13.53;;;13.10;1.00;;;;;;6389267;27;20233;-58
2022/10/22 06:03:41;;;;;;;19.53;16.00;;;13.10;1.00;;;;;;6383139;27;20245;-52
2022/10/22 06:06:47;;;;;;;16.40;14.80;;;13.10;1.00;;;;;;6387400;27;20238;-52
2022/10/22 06:09:52;;;;;;;13.70;12.40;;;13.00;1.00;;;;;;6374701;27;20236;-52
2022/10/22 06:12:55;;;;;;;15.23;13.80;;;13.00;1.00;;;;;;6388671;27;20243;-53
2022/10/22 06:15:58;;;;;;;15.13;13.73;;;13.00;1.00;;;;;;6388793;27;20318;-53
2022/10/22 06:19:01;;;;;;;12.20;11.20;;;13.00;1.00;;;;;;6381421;27;20241;-52
2022/10/22 06:22:06;;;;;;;17.33;15.63;;;13.00;1.00;;;;;;6354722;27;20227;-50
2022/10/22 06:25:09;;;;;;;15.73;14.27;;;13.00;1.00;;;;;;6384162;27;20318;-53
2022/10/22 06:28:12;;;;;;;14.13;12.83;;;13.00;1.00;;;;;;6388085;27;20257;-52
2022/10/22 06:31:15;;;;;;;13.33;12.20;;;13.10;1.00;;;;;;6385263;27;20350;-52
2022/10/22 06:34:18;;;;;;;16.30;14.73;;;13.10;1.00;;;;;;6389216;27;20231;-53
2022/10/22 06:37:22;;;;;;;14.00;12.70;;;13.10;1.00;;;;;;6387463;27;20245;-52
2022/10/22 06:40:25;;;;;;;17.57;15.57;;;13.20;1.00;;;;;;6385012;27;20741;-52
2022/10/22 06:43:28;;;;;;;19.03;15.47;;;13.20;1.00;;;;;;6385548;27;20238;-52
2022/10/22 06:46:31;;;;;;;17.47;15.80;;;13.20;1.00;;;;;;6384690;27;20352;-53
2022/10/22 06:49:34;;;;;;;19.97;17.80;;;13.30;1.00;;;;;;6384417;27;20230;-53
2022/10/22 06:52:38;;;;;;;16.77;15.07;;;13.30;1.00;;;;;;6387323;27;20242;-53
2022/10/22 06:55:41;;;;;;;19.30;16.43;;;13.40;1.00;;;;;;6386474;27;20230;-53
2022/10/22 06:58:46;;;;;;;21.10;18.90;;;13.30;1.00;;;;;;6378832;27;20238;-53
2022/10/22 07:01:49;;;;;;;22.70;17.77;;;13.40;1.00;;;;;;6379686;27;20323;-53
2022/10/22 07:04:52;;;;;;;26.77;21.03;;;13.40;1.00;;;;;;6386098;27;20250;-53
2022/10/22 07:07:56;;;;;;;21.90;19.37;;;13.40;1.00;;;;;;6381410;27;20230;-52
2022/10/22 07:11:06;;;;;;;18.83;16.93;;;13.40;1.00;;;;;;6386637;27;20452;-54
2022/10/22 07:14:10;;;;;;;24.13;18.83;;;13.50;1.00;;;;;;6386473;27;20223;-53
2022/10/22 07:17:13;;;;;;;24.63;19.33;;;13.60;1.00;;;;;;6383972;27;20222;-55
2022/10/22 07:20:17;;;;;;;20.07;17.90;;;13.50;1.00;;;;;;6382724;27;20226;-51
2022/10/22 07:23:21;;;;;;;18.33;16.50;;;13.50;1.00;;;;;;6384910;27;20754;-53
2022/10/22 07:26:27;;;;;;;17.70;15.90;;;13.60;1.00;;;;;;6386194;27;20434;-53
2022/10/22 07:29:29;;;;;;;17.50;15.77;;;13.60;1.00;;;;;;6385645;27;20234;-52
2022/10/22 07:32:32;;;;;;;19.70;17.67;;;13.70;1.00;;;;;;6384468;27;20245;-53
2022/10/22 07:35:36;;;;;;;20.10;17.23;;;13.80;1.00;;;;;;6382433;27;20751;-53
2022/10/22 07:38:40;;;;;;;18.27;16.43;;;13.80;1.00;;;;;;6379120;27;20610;-54
2022/10/22 07:41:43;;;;;;;19.37;17.13;;;13.80;1.00;;;;;;6385711;27;20226;-52
2022/10/22 07:44:45;;;;;;;21.37;18.50;;;13.90;1.00;;;;;;6384836;27;20241;-53
2022/10/22 07:47:48;;;;;;;18.67;15.73;;;13.90;1.00;;;;;;6382641;27;20250;-53
2022/10/22 07:50:51;;;;;;;18.63;16.60;;;14.00;1.00;;;;;;6384939;27;20253;-52
2022/10/22 07:53:56;;;;;;;16.53;14.90;;;14.00;1.00;;;;;;6383316;27;20242;-52
2022/10/22 07:56:58;;;;;;;21.73;16.10;;;14.20;1.00;;;;;;6377722;27;20241;-53
2022/10/22 08:00:01;;;;;;;17.53;15.83;;;14.20;1.00;;;;;;6385710;27;20239;-52
2022/10/22 08:03:04;;;;;;;17.10;15.40;;;14.30;1.00;;;;;;6383167;27;22468;-52
2022/10/22 08:06:07;;;;;;;17.90;16.20;;;14.40;1.00;;;;;;6385674;27;20376;-55
2022/10/22 08:09:12;;;;;;;16.27;14.70;;;14.40;1.00;;;;;;6384971;27;20424;-57
2022/10/22 08:12:15;;;;;;;18.30;16.67;;;14.40;1.00;;;;;;6385370;27;20238;-53
2022/10/22 08:15:17;;;;;;;18.10;16.30;;;14.40;1.00;;;;;;6381950;27;20242;-53
2022/10/22 08:18:20;;;;;;;16.93;15.23;;;14.40;1.00;;;;;;6384078;27;20238;-54
2022/10/22 08:21:23;;;;;;;17.77;15.97;;;14.40;1.00;;;;;;6379690;27;20226;-54
2022/10/22 08:24:28;;;;;;;16.87;15.07;;;14.40;1.00;;;;;;6384271;27;20237;-54
2022/10/22 08:27:31;;;;;;;17.20;15.50;;;14.50;1.00;;;;;;6383578;27;20230;-53
2022/10/22 08:30:36;;;;;;;16.70;15.20;;;14.50;1.00;;;;;;6384148;27;20740;-53
2022/10/22 08:33:40;;;;;;;16.10;14.57;;;14.50;1.00;;;;;;6384379;27;20347;-53
2022/10/22 08:36:43;;;;;;;16.63;15.03;;;14.60;1.00;;;;;;6384465;27;20235;-53
2022/10/22 08:39:47;;;;;;;18.17;16.47;;;14.60;1.00;;;;;;6390392;27;20613;-53
2022/10/22 08:43:29;;;;;;;16.47;14.97;;;14.60;1.00;;;;;;6390366;27;20238;-53
2022/10/22 08:46:43;;;;;;;17.70;15.50;;;14.60;1.00;;;;;;6281033;28;20225;-54
2022/10/22 08:49:46;;;;;;;16.87;15.37;;;14.70;1.00;;;;;;6288156;27;20234;-52
2022/10/22 08:52:54;;;;;;;16.37;14.93;;;14.70;1.00;;;;;;6380889;27;20242;-51
2022/10/22 08:55:59;;;;;;;17.00;15.23;;;14.70;1.00;;;;;;6382798;27;20642;-54
2022/10/22 08:59:09;;;;;;;16.90;15.33;;;14.80;1.00;;;;;;6389885;27;20238;-54
2022/10/22 09:02:30;;;;;;;15.20;13.90;;;14.80;1.00;;;;;;6389398;27;20453;-55
2022/10/22 09:05:39;;;;;;;16.23;14.83;;;14.90;1.00;;;;;;6387714;27;20726;-54
2022/10/22 09:08:44;;;;;;;15.90;14.37;;;14.90;1.00;;;;;;6389439;27;20223;-53
2022/10/22 09:11:50;;;;;;;14.77;13.47;;;15.00;1.00;;;;;;6390082;27;20235;-53
2022/10/22 09:14:54;;;;;;;15.23;13.83;;;15.00;1.00;;;;;;6387100;27;22334;-52
2022/10/22 09:18:10;;;;;;;16.63;15.03;;;15.00;1.00;;;;;;6389416;27;20237;-54
2022/10/22 09:21:20;;;;;;;15.53;14.07;;;15.10;1.00;;;;;;6388629;27;20495;-53
2022/10/22 09:24:32;;;;;;;16.37;14.73;;;15.10;1.00;;;;;;6383851;27;20249;-53
2022/10/22 09:27:37;;;;;;;16.07;14.47;;;15.10;1.00;;;;;;6387357;27;20288;-56
2022/10/22 09:30:40;;;;;;;15.20;13.70;;;15.20;1.00;;;;;;6385547;27;20711;-53
2022/10/22 09:33:44;;;;;;;15.47;13.97;;;15.30;1.00;;;;;;6383895;27;20620;-52
2022/10/22 09:36:47;;;;;;;16.93;14.30;;;15.30;1.00;;;;;;6384901;27;20241;-54
2022/10/22 09:39:52;;;;;;;14.40;12.97;;;15.50;1.00;;;;;;6374412;27;20234;-53
2022/10/22 09:42:56;;;;;;;13.70;12.67;;;15.50;1.00;;;;;;6387103;27;20230;-53
2022/10/22 09:46:01;;;;;;;14.90;13.30;;;15.60;1.00;;;;;;6383671;27;20569;-54
2022/10/22 09:49:10;;;;;;;15.20;13.63;;;15.70;1.00;;;;;;6381579;27;20234;-53
2022/10/22 09:52:27;;;;;;;14.27;12.87;;;15.80;1.00;;;;;;6380171;27;20235;-53
2022/10/22 09:55:30;;;;;;;12.70;11.47;;;15.90;1.00;;;;;;6385576;27;20238;-54
2022/10/22 09:58:43;;;;;;;14.87;13.47;;;16.00;1.00;;;;;;6387832;27;20734;-54
2022/10/22 10:01:46;;;;;;;15.10;13.53;;;16.00;1.00;;;;;;6386919;27;20238;-54
2022/10/22 10:04:51;;;;;;;14.97;13.57;;;16.10;1.00;;;;;;6382095;27;20237;-54
2022/10/22 10:07:54;;;;;;;14.53;13.17;;;16.10;1.00;;;;;;6387064;27;20234;-54
2022/10/22 10:11:00;;;;;;;13.20;12.17;;;16.10;1.00;;;;;;6387712;27;20241;-54
2022/10/22 10:14:13;;;;;;;13.97;12.67;;;16.00;1.00;;;;;;6379531;27;20341;-54
2022/10/22 10:17:27;;;;;;;14.10;12.80;;;16.00;1.00;;;;;;6386961;27;20215;-54
2022/10/22 10:20:39;;;;;;;15.30;13.87;;;16.10;1.00;;;;;;6384447;27;20227;-55
2022/10/22 10:23:53;;;;;;;14.10;12.93;;;16.10;1.00;;;;;;6385041;27;20241;-54
2022/10/22 10:27:02;;;;;;;14.67;13.43;;;16.00;1.00;;;;;;6378594;27;20231;-54
2022/10/22 10:30:12;;;;;;;14.10;12.83;;;16.00;1.00;;;;;;6379688;27;20726;-54
2022/10/22 10:33:23;;;;;;;15.63;13.50;;;16.00;1.00;;;;;;6386492;27;20746;-58
2022/10/22 10:36:36;;;;;;;13.00;12.00;;;16.00;1.00;;;;;;6384739;27;20384;-54
2022/10/22 10:40:03;;;;;;;13.17;11.93;;;16.10;1.00;;;;;;6384750;27;20905;-55
2022/10/22 10:43:10;;;;;;;15.17;13.67;;;16.10;1.00;;;;;;6375123;27;20706;-53
2022/10/22 10:46:24;;;;;;;15.93;14.37;;;16.20;1.00;;;;;;6384731;27;20233;-54
2022/10/22 10:49:32;;;;;;;14.83;13.40;;;16.30;1.00;;;;;;6386341;27;20234;-54
2022/10/22 10:52:44;;;;;;;17.17;13.27;;;16.20;1.00;;;;;;6378670;27;20234;-53
2022/10/22 10:55:57;;;;;;;17.77;13.47;;;16.20;1.00;;;;;;6386870;27;20605;-54
2022/10/22 10:59:12;;;;;;;16.87;15.27;;;16.30;1.00;;;;;;6386777;27;20635;-54
2022/10/22 11:02:45;;;;;;;15.77;14.27;;;16.40;1.00;;;;;;6380806;27;20227;-55
2022/10/22 11:05:52;;;;;;;15.70;13.90;;;16.50;1.00;;;;;;6377444;27;20396;-55
2022/10/22 11:09:01;;;;;;;15.10;13.80;;;16.80;1.00;;;;;;6385530;27;20611;-54
2022/10/22 11:12:12;;;;;;;13.87;12.60;;;17.00;1.00;;;;;;6379043;27;20246;-59
2022/10/22 11:15:25;;;;;;;14.43;13.10;;;17.20;1.00;;;;;;6385522;27;20238;-55
2022/10/22 11:18:36;;;;;;;17.63;14.03;;;17.40;1.00;;;;;;6385503;27;20360;-53
2022/10/22 11:21:42;;;;;;;16.90;15.23;;;17.50;1.00;;;;;;6380885;27;20601;-58
2022/10/22 11:24:52;;;;;;;17.17;15.43;;;17.50;1.00;;;;;;6385259;27;20632;-55
2022/10/22 11:28:01;;;;;;;17.13;15.43;;;17.60;1.00;;;;;;6382553;27;20254;-55
2022/10/22 11:31:15;;;;;;;17.60;15.90;;;17.60;1.00;;;;;;6385652;27;20644;-55
2022/10/22 11:34:22;;;;;;;16.57;14.83;;;17.70;1.00;;;;;;6383572;27;20234;-54
2022/10/22 11:37:42;;;;;;;18.03;16.33;;;17.70;1.00;;;;;;6385022;27;20246;-55
2022/10/22 11:40:48;;;;;;;18.30;16.40;;;17.80;1.00;;;;;;6371958;27;20695;-56
2022/10/22 11:44:04;;;;;;;17.93;16.03;;;18.00;1.00;;;;;;6385249;27;20244;-57
2022/10/22 11:47:18;;;;;;;15.37;13.87;;;18.10;1.00;;;;;;6383628;27;20227;-61
2022/10/22 11:50:25;;;;;;;18.67;16.33;;;18.20;1.00;;;;;;6380437;27;20805;-55
2022/10/22 11:53:32;;;;;;;16.53;14.73;;;18.20;1.00;;;;;;6380606;27;20230;-55
2022/10/22 11:56:38;;;;;;;18.47;15.33;;;18.30;1.00;;;;;;6384347;27;20242;-55
2022/10/22 11:59:48;;;;;;;15.87;13.57;;;18.40;1.00;;;;;;6381857;27;20226;-55
2022/10/22 12:03:03;;;;;;;15.50;13.80;;;18.40;1.00;;;;;;6384032;27;20250;-55
2022/10/22 12:06:19;;;;;;;16.10;14.20;;;18.40;1.00;;;;;;6384561;27;20726;-55
2022/10/22 12:09:24;;;;;;;14.03;12.83;;;18.40;1.00;;;;;;6385360;27;20723;-55
2022/10/22 12:12:28;;;;;;;14.43;11.20;;;18.50;1.00;;;;;;6390499;27;20231;-55
2022/10/22 12:15:31;;;;;;;19.07;12.70;;;18.60;1.00;;;;;;6389908;27;20594;-55
2022/10/22 12:18:42;;;;;;;13.37;11.60;;;18.80;1.00;;;;;;6389923;27;20249;-56
2022/10/22 12:21:49;;;;;;;12.20;10.57;;;18.90;1.00;;;;;;6387385;27;20245;-55
2022/10/22 12:24:53;;;;;;;9.80;8.90;;;19.00;1.00;;;;;;6387824;27;20619;-56
2022/10/22 12:27:58;;;;;;;10.37;8.93;;;18.90;1.00;;;;;;6385013;27;20367;-55
2022/10/22 12:31:01;;;;;;;9.60;8.60;;;18.80;1.00;;;;;;6389506;27;20244;-55
2022/10/22 12:34:04;;;;;;;8.67;7.93;;;18.80;1.00;;;;;;6385810;27;20231;-54
2022/10/22 12:37:11;;;;;;;8.73;8.13;;;18.80;1.00;;;;;;6385716;27;20242;-59
2022/10/22 12:40:17;;;;;;;7.87;7.30;;;18.80;1.00;;;;;;6388778;27;20241;-55
2022/10/22 12:43:25;;;;;;;10.23;7.17;;;18.90;1.00;;;;;;6391992;27;20243;-56
2022/10/22 12:46:30;;;;;;;7.63;6.83;;;19.00;1.00;;;;;;6388774;27;20222;-55
2022/10/22 12:49:36;;;;;;;8.07;7.27;;;19.00;1.00;;;;;;6389676;27;20222;-54
2022/10/22 12:52:40;;;;;;;7.23;6.53;;;19.10;1.00;;;;;;6382158;27;20238;-55
2022/10/22 12:55:48;;;;;;;6.53;6.10;;;19.10;1.00;;;;;;6388653;27;20800;-55
2022/10/22 12:58:55;;;;;;;6.70;5.93;;;19.20;1.00;;;;;;6388453;27;20745;-55
2022/10/22 13:01:58;;;;;;;11.93;6.10;;;19.10;1.00;;;;;;6387722;27;20238;-56
2022/10/22 13:05:14;;;;;;;6.37;5.87;;;19.10;1.00;;;;;;6388083;27;20235;-55
2022/10/22 13:08:23;;;;;;;6.13;5.13;;;19.20;1.00;;;;;;6385359;27;20280;-55
2022/10/22 13:11:33;;;;;;;5.10;4.60;;;19.20;1.00;;;;;;6388886;27;20761;-56
2022/10/22 13:14:37;;;;;;;5.20;4.80;;;19.20;1.00;;;;;;6389681;27;20230;-55
2022/10/22 13:17:42;;;;;;;7.40;4.53;;;19.30;1.00;;;;;;6385843;27;20235;-55
2022/10/22 13:20:53;;;;;;;4.53;4.23;;;19.40;1.00;;;;;;6387019;27;20239;-57
2022/10/22 13:24:00;;;;;;;4.17;3.87;;;19.40;1.00;;;;;;6379166;27;20269;-55
2022/10/22 13:27:03;;;;;;;5.30;4.50;;;19.30;1.00;;;;;;6387837;27;20235;-56
2022/10/22 13:30:17;;;;;;;6.00;4.13;;;19.40;1.00;;;;;;6382120;27;20702;-55
2022/10/22 13:33:25;;;;;;;4.80;4.37;;;19.40;1.00;;;;;;6384839;27;20602;-55
2022/10/22 13:36:28;;;;;;;3.63;3.43;;;19.40;1.00;;;;;;6386618;27;20231;-56
2022/10/22 13:39:34;;;;;;;7.67;4.30;;;19.40;1.00;;;;;;6388217;27;20731;-55
2022/10/22 13:42:38;;;;;;;4.50;3.97;;;19.40;1.00;;;;;;6383635;27;20684;-56
2022/10/22 13:45:43;;;;;;;3.93;3.73;;;19.40;1.00;;;;;;6388128;27;20344;-53
2022/10/22 13:48:47;;;;;;;3.70;3.40;;;19.40;1.00;;;;;;6385701;27;20227;-57
2022/10/22 13:51:51;;;;;;;3.40;3.30;;;19.30;1.00;;;;;;6387437;27;20239;-55
2022/10/22 13:54:55;;;;;;;4.07;3.77;;;19.30;1.00;;;;;;6387380;27;20321;-55
2022/10/22 13:58:03;;;;;;;7.50;3.87;;;19.40;1.00;;;;;;6388231;27;20241;-56
2022/10/22 14:01:17;;;;;;;6.23;3.83;;;19.30;1.00;;;;;;6386486;27;20481;-54
2022/10/22 14:04:20;;;;;;;4.17;3.27;;;19.30;1.00;;;;;;6387453;27;20363;-56
2022/10/22 14:07:23;;;;;;;5.53;4.00;;;19.30;1.00;;;;;;6382258;27;20507;-55
2022/10/22 14:10:28;;;;;;;4.10;3.70;;;19.30;1.00;;;;;;6387538;27;20234;-55
2022/10/22 14:13:30;;;;;;;5.17;3.77;;;19.30;1.00;;;;;;6386478;27;20640;-54
2022/10/22 14:16:33;;;;;;;7.07;4.03;;;19.20;1.00;;;;;;6382963;27;20234;-56
2022/10/22 14:19:36;;;;;;;6.10;3.77;;;19.10;1.00;;;;;;6386533;27;20431;-57
2022/10/22 14:22:39;;;;;;;3.73;3.43;;;19.10;1.00;;;;;;6380404;27;20231;-55
2022/10/22 14:25:43;;;;;;;3.77;3.50;;;19.10;1.00;;;;;;6384634;27;20257;-55
2022/10/22 14:28:46;;;;;;;3.90;3.50;;;19.00;1.00;;;;;;6385588;27;20226;-55
2022/10/22 14:32:19;;;;;;;5.67;4.10;;;19.00;1.00;;;;;;6385024;27;20231;-55
2022/10/22 14:35:23;;;;;;;3.83;3.50;;;19.00;1.00;;;;;;6387457;27;20222;-55
2022/10/22 14:38:26;;;;;;;5.73;4.00;;;18.90;1.00;;;;;;6382623;27;20410;-54
2022/10/22 14:41:30;;;;;;;4.97;3.50;;;18.80;1.00;;;;;;6383225;27;20235;-56
2022/10/22 14:44:33;;;;;;;7.13;3.43;;;18.80;1.00;;;;;;6387123;27;20223;-55
2022/10/22 14:47:36;;;;;;;9.77;4.07;;;18.70;1.00;;;;;;6386087;27;20642;-55
2022/10/22 14:50:39;;;;;;;3.97;3.63;;;18.70;1.00;;;;;;6385113;27;20222;-57
2022/10/22 14:53:41;;;;;;;5.30;3.87;;;18.60;1.00;;;;;;6378357;27;20242;-55
2022/10/22 14:56:46;;;;;;;5.10;4.60;;;18.50;1.00;;;;;;6386369;27;20251;-56
2022/10/22 14:59:49;;;;;;;3.90;3.47;;;18.40;1.00;;;;;;6384082;27;20231;-55
2022/10/22 15:02:54;;;;;;;3.97;3.67;;;18.30;1.00;;;;;;6385572;27;20261;-55
2022/10/22 15:05:57;;;;;;;5.00;4.50;;;18.20;1.00;;;;;;6386372;27;20434;-55
2022/10/22 15:09:00;;;;;;;5.90;3.80;;;18.20;1.00;;;;;;6380108;27;20238;-55
2022/10/22 15:12:05;;;;;;;4.93;4.00;;;18.10;1.00;;;;;;6386250;27;20490;-55
2022/10/22 15:15:08;;;;;;;9.07;4.03;;;18.00;1.00;;;;;;6385824;27;20230;-56
2022/10/22 15:18:11;;;;;;;8.93;4.10;;;18.00;1.00;;;;;;6385948;27;20359;-55
2022/10/22 15:21:16;;;;;;;5.43;3.40;;;18.00;1.00;;;;;;6379487;27;20715;-55
2022/10/22 15:24:18;;;;;;;4.10;3.90;;;17.90;1.00;;;;;;6381721;27;20706;-54
2022/10/22 15:27:22;;;;;;;6.93;4.00;;;17.80;1.00;;;;;;6385892;27;20244;-53
2022/10/22 15:30:25;;;;;;;4.00;3.67;;;17.70;1.00;;;;;;6381393;27;20572;-56
2022/10/22 15:33:29;;;;;;;6.90;4.10;;;17.70;1.00;;;;;;6385333;27;20234;-58
2022/10/22 15:36:31;;;;;;;5.27;3.67;;;17.60;1.00;;;;;;6385401;27;20245;-55
2022/10/22 15:39:35;;;;;;;4.30;3.90;;;17.50;1.00;;;;;;6384820;27;20230;-53
2022/10/22 15:42:39;;;;;;;4.13;3.80;;;17.40;1.00;;;;;;6385742;27;20757;-55
2022/10/22 15:45:42;;;;;;;4.13;3.77;;;17.30;1.00;;;;;;6385621;27;20337;-58
2022/10/22 15:48:46;;;;;;;5.87;3.90;;;17.30;1.00;;;;;;6384737;27;20237;-56
2022/10/22 15:51:49;;;;;;;3.37;3.13;;;17.10;1.00;;;;;;6385483;27;20257;-55
2022/10/22 15:54:52;;;;;;;4.10;3.67;;;17.10;1.00;;;;;;6380770;27;20299;-60
2022/10/22 15:57:56;;;;;;;4.10;3.70;;;16.90;1.00;;;;;;6376721;27;20237;-54
2022/10/22 16:01:05;;;;;;;6.37;4.60;;;16.80;1.00;;;;;;6385818;27;20235;-54